Suphan Buri, Thailand
Current Conditions -  °F | °C
As of 4:30 PM on Sunday 26 Oct 2014 (Local Time) from VTBD Reporting Station
Rain Showers Rain Showers  
Wind Chill: 82°   Ceiling: 12000
Heat Index: 89°   Visibility: 6mi
Dew Point: 75°   Wind: 8mph
Humidity: 79%   Direction: 200°SSW
Pressure: 29.83"   Gusts: NA
Location:  14.47°N, 100.13°E
Report Text: VTBD 260930Z 20007KT 170V230 9999 VCSH FEW020CB SCT035 BKN120 28/24 Q1010 NOSIG
Loading
Personal Weather Stations






























Interactive Weather Map
Tropical Storm Tracking
New forecast layout! Learn more

10-Day Weather Forecast

Advertisements
Track Severe Weather on mobile